Prochaines Courses

Inscriptions en ligne

Connexion

Run & Bike

DEFI VERT RUN & BIKE du 05/10/13 (Reelle 6,5) 
Rang Dossard Nom Prénom Temps Cat Rang Cat Ecart Ecart Cat Club Vitesse Km/h Temps au Km
1 2 LEDEZ Rémi FORTIN Léo 00:21:20 Sénior M 1 00:00:00 00:00:00 Cap Opale 18,281 03:17
2 20 LELIEVRE Michel FLIGNY Arnaud 00:21:40 Sénior M 2 00:00:20 00:00:20 Touquettois 18,000 03:20
3 1 KUSCHNICK Philippe DERNONCOURT Mathieu 00:21:46 Vétéran M 1 00:00:26 00:00:00 Cap Opale Julbo 17,917 03:21
4 78 MASSET Frédéric LOREILLE Thomas 00:22:36 Sénior M 3 00:01:16 00:01:16 Athletico Mojito 17,257 03:29
5 48 THESSE David THESSE Yann 00:22:40 Sénior M 4 00:01:20 00:01:20 Les Fréres Thesse'Stostérone 17,206 03:29
6 27 RICOUART Gérard RENAUX Frédéric 00:22:56 Sénior M 5 00:01:36 00:01:36 Team Ricouart 17,006 03:32
7 65 MEATS Antoine ROELS Pascal 00:23:14 Sénior M 6 00:01:54 00:01:54 AS Marck Athlé 2 16,786 03:34
8 32 FLECHEL Alixe QUEVAL Rémi 00:23:26 Mixte 1 00:02:06 00:00:00 Les Peine à Jouir 16,643 03:36
9 7 CANAC Christophe BOCQUET Philippe 00:23:30 Vétéran M 2 00:02:10 00:01:44 Triathlon Club Boulogne 16,596 03:37
10 23 HIDDEN Thierry DELARACE Jean-Marc 00:23:38 Vétéran M 3 00:02:18 00:01:52 TL59 16,502 03:38
11 66 DINIELLE Arnaud LANNOY Frédéric 00:23:46 Sénior M 7 00:02:26 00:02:26 Team Mono Sport 1 16,410 03:39
12 73 GYTHIEL Franck LOOTEN Bernard 00:23:56 Vétéran M 4 00:02:36 00:02:10 Manosport Veloland 16,295 03:41
13 44 BRUNOT Yohann BIZ Delphine 00:24:19 Mixte 2 00:02:59 00:00:53 GSO Dunkerque Raid 16,038 03:44
14 25 LOEUILLEUX Stéphane LOEUILLEUX Pierre 00:24:26 Sénior M 8 00:03:06 00:03:06 Team Family 15,962 03:46
15 17 WISCART Etienne JOETS Maxence 00:24:28 Cadet M 1 00:03:08 00:00:00 COT Triathlon 1 15,940 03:46
16 47 DESCAMPS Pascal REQUERA Hervé 00:24:29 Vétéran M 5 00:03:09 00:02:43 TL 59 15,929 03:46
17 3 HANQUEZ Rodrigue BARTHELEMY Christian 00:24:33 Sénior M 9 00:03:13 00:03:13 Cap Opale Véloland 15,886 03:47
18 39 DRANSART Adrien THOOR Nycolas 00:24:33 Sénior M 10 00:03:13 00:03:13 Equipe 30 15,886 03:47
19 4 QUEVAL Charly CARRE Pauline 00:24:41 Mixte 3 00:03:21 00:01:15 Lille 2 La Tentation 15,800 03:48
20 5 POUTRAIN Kellig AIGOUY Damien 00:24:45 Sénior M 11 00:03:25 00:03:25 Lys AA Tri 1 15,758 03:48
21 69 DELEZENNE Pascal RIFFARD Jean 00:24:48 Vétéran M 6 00:03:28 00:03:02 T2 Capathlon 15,726 03:49
22 13 ADMONT Stéphane MANTEZ Olivier 00:24:54 Vétéran M 7 00:03:34 00:03:08 AS Marck Athlé 1 15,663 03:50
23 10 FIEVET Pascal MAZURIER Alain 00:25:10 Sénior M 12 00:03:50 00:03:50 Les CANIGOU 15,497 03:52
24 61 GRESSIER Pascal LOYER Virginie 00:25:17 Mixte 4 00:03:57 00:01:51 0 15,425 03:53
25 70 VIGNAL Mickael VIGNAL Larry 00:25:19 Sénior M 13 00:03:59 00:03:59 VALMO 15,405 03:54
26 21 FRISCOURT Jérome DEVEYCX Gauthier 00:25:19 Sénior M 14 00:03:59 00:03:59 Matrix Reloaded 15,405 03:54
27 15 ARGENTIN Benoit MONCHY Cyprien 00:25:25 Sénior M 15 00:04:05 00:04:05 The First Will Be Last 15,344 03:55
28 51 HENEMAN Jean-Michel BLANPAIN Jean-Pierre 00:25:46 Vétéran M 8 00:04:26 00:04:00 Gravelines Tri 15,136 03:58
29 29 GEENS Cédric VILLEZ Valentin 00:25:51 Sénior M 16 00:04:31 00:04:31 Mon Beau Père et Moi 15,087 03:59
30 26 BODART Vincent DESMOUST Stéphane 00:25:58 Vétéran M 9 00:04:38 00:04:12 Stade Longuenessois 15,019 04:00
31 76 NEMPON Daniel WALLYN Stéphane 00:26:08 Vétéran M 10 00:04:48 00:04:22 0 14,923 04:01
32 24 DEPLECHIN David GODART Valérie 00:26:16 Mixte 5 00:04:56 00:02:50 Turtle Team 14,848 04:02
33 79 LE BEC Michael LEVEL Fabien 00:26:22 Sénior M 17 00:05:02 00:05:02 Les Bof Bof 14,791 04:03
34 54 VERPOORT Charlotte RINGOT Stéphanie 00:26:25 Sénior F 1 00:05:05 00:00:00 Les Filles en Rose 14,763 04:04
35 72 JACQUEMOD Mickael CROGIEZ José 00:26:29 Sénior M 18 00:05:09 00:05:09 Manosport Veloland 14,726 04:04
36 8 CARPENTIER Thierry MAZURIER Erir 00:26:30 Vétéran M 11 00:05:10 00:04:44 Sport Evasion 2 Caps 1 14,717 04:05
37 33 CAPELLE Jeanne BOYER Yvan 00:26:30 Mixte 6 00:05:10 00:03:04 Mare Monti 14,717 04:05
38 28 LECOUSTRE Kévin DEWET Brian 00:26:33 Sénior M 19 00:05:13 00:05:13 Les Guinois 14,689 04:05
39 52 DUCANOAS Franck CAGANRD Jean-Damien 00:26:34 Sénior M 20 00:05:14 00:05:14 Les Slackers 14,680 04:05
40 18 WACCRENIER Adrien DE POORTER Sébatien 00:26:40 Sénior M 21 00:05:20 00:05:20 Les Globes Ploteur 14,625 04:06
41 56 COUBET Philippe HENEMAN Christophe 00:26:48 Sénior M 22 00:05:28 00:05:28 Courir à Gravelines 14,552 04:07
42 43 VAILLANT Thierry LEFEBVRE Grégory 00:26:49 Vétéran M 12 00:05:29 00:05:03 Sang et Or 14,543 04:08
43 57 VIGONGNE Geoffrey FOULON Julien 00:26:51 Sénior M 23 00:05:31 00:05:31 Clik Clak Riders 14,525 04:08
44 62 GOURDIN Eric LEULEU Laeticia 00:26:58 Mixte 7 00:05:38 00:03:32 0 14,462 04:09
45 74 AMAZ Laurent DEPATURE Franck 00:27:01 Sénior M 24 00:05:41 00:05:41 Les Gros Nazes 14,436 04:09
46 55 LAIDEZ Jonathan KUSCHNICK Fabrice 00:27:26 Sénior M 25 00:06:06 00:06:06 Team Sportanim 14,216 04:13
47 37 LECRAS Michel BOUDRINGHIN Jean-Marc 00:27:32 Vétéran M 13 00:06:12 00:05:46 Equipe 30 14,165 04:14
48 42 BERLY Manuelle ROUTIER Maud 00:27:54 Sénior F 2 00:06:34 00:01:29 Les TriWomen 13,978 04:18
49 45 SERGENT Romuald GRESSIER Olivier 00:28:03 Sénior M 26 00:06:43 00:06:43 Team Trail 62 13,904 04:19
50 63 PLARD Maxime LOGEZ Baptiste 00:28:15 Sénior M 27 00:06:55 00:06:55 0 13,805 04:21
51 35 VANHILLE Christophe DEWAELE Michel 00:28:18 Vétéran M 14 00:06:58 00:06:32 Les Compères 13,781 04:21
52 14 CHARPENTIER Cécile ELZBACH Aurélie 00:28:25 Sénior F 3 00:07:05 00:02:00 Sport Evasion 2 Caps 2 13,724 04:22
53 71 DEMILLY Mathieu RIVENEZ Mickael 00:28:30 Sénior M 28 00:07:10 00:07:10 T2 Capathlon 13,684 04:23
54 50 ROUSSEL Charlotte DUREZ-NION Angélique 00:28:34 Sénior F 4 00:07:14 00:02:09 Les Gravelinoises 13,652 04:24
55 68 BERTIN Thomas LAVOYE Loic 00:28:41 Cadet M 2 00:07:21 00:04:13 Les Jeunes du Lys 13,597 04:25
56 49 JOYEZ Frédéric GROUX Alex 00:28:42 Sénior M 29 00:07:22 00:07:22 Alfred 13,589 04:25
57 40 MONTIGNY Dimitri GAVOIS Cyril 00:28:47 Sénior M 30 00:07:27 00:07:27 Sport Evasion 2 Caps 3 13,550 04:26
58 31 EVRARD Claire MASSON Annick 00:29:17 Sénior F 5 00:07:57 00:02:52 Lys AA Tri Women 13,318 04:30
59 34 LELIEURE Christelle GREMONT Anne 00:29:22 Sénior F 6 00:08:02 00:02:57 No Stress 13,280 04:31
60 6 BABIN Nicolas BABIN Lory 00:29:23 Sénior M 31 00:08:03 00:08:03 Les BABS 13,273 04:31
61 16 BUY Jacques BECQUET Karine 00:29:31 Mixte 8 00:08:11 00:06:05 Les Vieux 13,213 04:32
62 22 ANDRIEUX Dimitri RADET Michèle 00:29:51 Mixte 9 00:08:31 00:06:25 CAP OPALE/LYS Tri 13,065 04:36
63 30 DHERBECOURT Christophe LEBLOND Jean-Pierre 00:30:22 Vétéran M 15 00:09:02 00:08:36 Equipe 30 12,843 04:40
64 12 DELAYE Franck DESAGHERE Pierre 00:30:56 Sénior M 32 00:09:36 00:09:36 Les Pois sont Verts 12,608 04:46
65 67 BILE Alain LABE Georges 00:31:04 Vétéran M 16 00:09:44 00:09:18 Team 64 12,554 04:47
66 59 BOULOGNE Jeremy CUCHEVAL Matthias 00:31:08 Sénior M 33 00:09:48 00:09:48 0 12,527 04:47
67 9 BODIN Amandine DELARUE Marie 00:31:26 Sénior F 7 00:10:06 00:05:01 Les Revenantes 12,407 04:50
68 19 CAPON BENOIT SINGER Marie 00:31:44 Mixte 10 00:10:24 00:08:18 La Glace 2 Boules 12,290 04:53
69 60 DENAN Jeremie DENAN Céline 00:33:09 Mixte 11 00:11:49 00:09:43 La Team Denan 11,765 05:06
70 64 COUBELLE Olivier GODART Jérome 00:33:20 Sénior M 34 00:12:00 00:12:00 Les Passe-Pierres 11,700 05:08
71 58 FERAMUS Dimitri FERAMUS Sandrine 00:34:04 Mixte 12 00:12:44 00:10:38 Les Barbares 11,448 05:14
72 46 HURTRELLE Guylain LEFRANCOIS Olivier 00:35:13 Sénior M 35 00:13:53 00:13:53 Equipe 30 11,074 05:25
73 11 AUDREZET Guillaume PICQUENDAR Dany 00:35:42 Sénior M 36 00:14:22 00:14:22 FAUT S'FAIRE ZIZIR 10,924 05:30
74 36 CODRON Philippe CODRON Séverine 00:37:10 Mixte 13 00:15:50 00:13:44 Equipe 30 10,493 05:43